PWSweather.com
Personal Weather Stations
Station Observations
UWIDEPER1
Brown County, Depere, WI 54115

Brown CountyDepere, WI 54115

Lat: 44.44, Lon: -88.05

Elevation: 610

Station Type: Acurite 5in1

www.depereweather.com

High Low Average
Temperature 37.4°F3.0°C 16.2°F-8.8°C 26.7°F-2.9°C
Dew Point 30.2°F-1.0°C 14.5°F-9.7°C 23.1°F-4.9°C
Winds 4.6 mph 7.4 kmh Calm Calm 2.0 mph SE3.2 kmh SE
Wind Gusts 6.9 mph11.1 kmh -- 2.0 mph3.2 kmh
Humidity 93% 70% 87%
Pressure 30.32 in1026.8 mb 30.07 in1018.3 mb -
Precipitation 0.00 in0.0 mm - -
Hour Temp Dew Point Humidity Winds Wind Gusts Pressure Precip Precip Rate Daily Precip Total
12:00 AM 20.7°F-6.3°C 17.7°F-7.9°C 88% Calm Calm 2.3 mph3.7 kmh 30.14 in1020.7 mb - 0.00 in0.0 mm 0.00 in0.0 mm
12:10 AM 19.8°F-6.8°C 16.8°F-8.4°C 88% Calm Calm -- 30.14 in1020.7 mb - 0.00 in0.0 mm 0.00 in0.0 mm
12:15 AM 19.6°F-6.9°C 16.6°F-8.6°C 88% Calm Calm -- 30.14 in1020.7 mb - 0.00 in0.0 mm 0.00 in0.0 mm
12:20 AM 19.6°F-6.9°C 17.1°F-8.3°C 90% Calm Calm -- 30.15 in1021.0 mb - 0.00 in0.0 mm 0.00 in0.0 mm
12:25 AM 19.2°F-7.1°C 16.8°F-8.4°C 90% Calm Calm 1.2 mph1.9 kmh 30.14 in1020.7 mb - 0.00 in0.0 mm 0.00 in0.0 mm
12:30 AM 19.0°F-7.2°C 16.6°F-8.6°C 90% Calm Calm -- 30.14 in1020.7 mb - 0.00 in0.0 mm 0.00 in0.0 mm
12:35 AM 18.9°F-7.3°C 15.9°F-8.9°C 88% Calm Calm 1.2 mph1.9 kmh 30.14 in1020.7 mb - 0.00 in0.0 mm 0.00 in0.0 mm
12:40 AM 18.9°F-7.3°C 16.4°F-8.7°C 90% 1.2 mph SE1.9 kmh SE 1.2 mph1.9 kmh 30.14 in1020.7 mb - 0.00 in0.0 mm 0.00 in0.0 mm
12:45 AM 18.7°F-7.4°C 16.5°F-8.6°C 91% Calm Calm 1.2 mph1.9 kmh 30.14 in1020.7 mb - 0.00 in0.0 mm 0.00 in0.0 mm
12:50 AM 18.7°F-7.4°C 16.5°F-8.6°C 91% Calm Calm -- 30.15 in1021.0 mb - 0.00 in0.0 mm 0.00 in0.0 mm
12:55 AM 18.2°F-7.7°C 16.0°F-8.9°C 91% Calm Calm -- 30.15 in1021.0 mb - 0.00 in0.0 mm 0.00 in0.0 mm
01:00 AM 18.1°F-7.7°C 16.0°F-8.9°C 91% Calm Calm -- 30.15 in1021.0 mb - 0.00 in0.0 mm 0.00 in0.0 mm
01:10 AM 18.1°F-7.7°C 16.0°F-8.9°C 91% Calm Calm -- 30.15 in1021.0 mb - 0.00 in0.0 mm 0.00 in0.0 mm
01:15 AM 18.0°F-7.8°C 15.8°F-9.0°C 91% Calm Calm -- 30.16 in1021.3 mb - 0.00 in0.0 mm 0.00 in0.0 mm
01:20 AM 18.0°F-7.8°C 15.8°F-9.0°C 91% Calm Calm -- 30.16 in1021.3 mb - 0.00 in0.0 mm 0.00 in0.0 mm
01:25 AM 18.1°F-7.7°C 16.0°F-8.9°C 91% Calm Calm -- 30.16 in1021.3 mb - 0.00 in0.0 mm 0.00 in0.0 mm
01:30 AM 17.9°F-7.8°C 15.8°F-9.0°C 91% Calm Calm -- 30.16 in1021.3 mb - 0.00 in0.0 mm 0.00 in0.0 mm
01:35 AM 17.8°F-7.9°C 15.6°F-9.1°C 91% Calm Calm -- 30.15 in1021.0 mb - 0.00 in0.0 mm 0.00 in0.0 mm
01:40 AM 18.6°F-7.4°C 16.9°F-8.4°C 93% Calm Calm -- 30.16 in1021.3 mb - 0.00 in0.0 mm 0.00 in0.0 mm
01:45 AM 18.9°F-7.3°C 17.2°F-8.2°C 93% Calm Calm -- 30.16 in1021.3 mb - 0.00 in0.0 mm 0.00 in0.0 mm
01:50 AM 18.9°F-7.3°C 17.2°F-8.2°C 93% Calm Calm -- 30.16 in1021.3 mb - 0.00 in0.0 mm 0.00 in0.0 mm
01:55 AM 19.0°F-7.2°C 17.4°F-8.1°C 93% Calm Calm -- 30.17 in1021.7 mb - 0.00 in0.0 mm 0.00 in0.0 mm
02:00 AM 19.0°F-7.2°C 17.4°F-8.1°C 93% Calm Calm -- 30.17 in1021.7 mb - 0.00 in0.0 mm 0.00 in0.0 mm
02:10 AM 18.7°F-7.4°C 17.0°F-8.3°C 93% Calm Calm -- 30.17 in1021.7 mb - 0.00 in0.0 mm 0.00 in0.0 mm
02:15 AM 18.7°F-7.4°C 17.0°F-8.3°C 93% Calm Calm -- 30.18 in1022.0 mb - 0.00 in0.0 mm 0.00 in0.0 mm
02:20 AM 18.7°F-7.4°C 17.0°F-8.3°C 93% Calm Calm -- 30.18 in1022.0 mb - 0.00 in0.0 mm 0.00 in0.0 mm
02:25 AM 18.6°F-7.4°C 17.0°F-8.3°C 93% Calm Calm -- 30.18 in1022.0 mb - 0.00 in0.0 mm 0.00 in0.0 mm
02:30 AM 18.5°F-7.5°C 16.8°F-8.4°C 93% Calm Calm -- 30.18 in1022.0 mb - 0.00 in0.0 mm 0.00 in0.0 mm
02:35 AM 18.1°F-7.7°C 16.5°F-8.6°C 93% Calm Calm -- 30.18 in1022.0 mb - 0.00 in0.0 mm 0.00 in0.0 mm
02:40 AM 18.1°F-7.7°C 16.4°F-8.7°C 93% Calm Calm -- 30.18 in1022.0 mb - 0.00 in0.0 mm 0.00 in0.0 mm
02:45 AM 17.8°F-7.9°C 16.1°F-8.8°C 93% Calm Calm -- 30.20 in1022.7 mb - 0.00 in0.0 mm 0.00 in0.0 mm
02:50 AM 17.6°F-8.0°C 16.0°F-8.9°C 93% Calm Calm -- 30.20 in1022.7 mb - 0.00 in0.0 mm 0.00 in0.0 mm
02:55 AM 17.4°F-8.1°C 15.7°F-9.1°C 93% Calm Calm -- 30.20 in1022.7 mb - 0.00 in0.0 mm 0.00 in0.0 mm
03:00 AM 17.2°F-8.2°C 15.6°F-9.1°C 93% Calm Calm -- 30.20 in1022.7 mb - 0.00 in0.0 mm 0.00 in0.0 mm
03:10 AM 17.2°F-8.2°C 15.6°F-9.1°C 93% Calm Calm 1.2 mph1.9 kmh 30.20 in1022.7 mb - 0.00 in0.0 mm 0.00 in0.0 mm
03:15 AM 17.2°F-8.2°C 15.6°F-9.1°C 93% Calm Calm -- 30.20 in1022.7 mb - 0.00 in0.0 mm 0.00 in0.0 mm
03:20 AM 16.9°F-8.4°C 15.2°F-9.3°C 93% Calm Calm -- 30.20 in1022.7 mb - 0.00 in0.0 mm 0.00 in0.0 mm
03:25 AM 16.9°F-8.4°C 15.2°F-9.3°C 93% Calm Calm -- 30.20 in1022.7 mb - 0.00 in0.0 mm 0.00 in0.0 mm
03:30 AM 16.9°F-8.4°C 15.2°F-9.3°C 93% Calm Calm -- 30.20 in1022.7 mb - 0.00 in0.0 mm 0.00 in0.0 mm
03:35 AM 16.7°F-8.5°C 15.0°F-9.4°C 93% Calm Calm -- 30.20 in1022.7 mb - 0.00 in0.0 mm 0.00 in0.0 mm
03:40 AM 16.7°F-8.5°C 15.0°F-9.4°C 93% Calm Calm -- 30.20 in1022.7 mb - 0.00 in0.0 mm 0.00 in0.0 mm
03:45 AM 16.7°F-8.5°C 15.0°F-9.4°C 93% Calm Calm -- 30.20 in1022.7 mb - 0.00 in0.0 mm 0.00 in0.0 mm
03:50 AM 16.9°F-8.4°C 15.2°F-9.3°C 93% Calm Calm -- 30.20 in1022.7 mb - 0.00 in0.0 mm 0.00 in0.0 mm
03:55 AM 17.4°F-8.1°C 15.7°F-9.1°C 93% Calm Calm -- 30.20 in1022.7 mb - 0.00 in0.0 mm 0.00 in0.0 mm
04:00 AM 17.4°F-8.1°C 15.7°F-9.1°C 93% Calm Calm -- 30.21 in1023.0 mb - 0.00 in0.0 mm 0.00 in0.0 mm
04:10 AM 17.4°F-8.1°C 15.7°F-9.1°C 93% Calm Calm -- 30.20 in1022.7 mb - 0.00 in0.0 mm 0.00 in0.0 mm
04:15 AM 17.4°F-8.1°C 15.7°F-9.1°C 93% Calm Calm -- 30.21 in1023.0 mb - 0.00 in0.0 mm 0.00 in0.0 mm
04:20 AM 17.4°F-8.1°C 15.7°F-9.1°C 93% Calm Calm -- 30.21 in1023.0 mb - 0.00 in0.0 mm 0.00 in0.0 mm
04:25 AM 17.4°F-8.1°C 15.7°F-9.1°C 93% Calm Calm -- 30.22 in1023.4 mb - 0.00 in0.0 mm 0.00 in0.0 mm
04:30 AM 17.4°F-8.1°C 15.7°F-9.1°C 93% Calm Calm -- 30.21 in1023.0 mb - 0.00 in0.0 mm 0.00 in0.0 mm
04:35 AM 17.2°F-8.2°C 15.6°F-9.1°C 93% Calm Calm -- 30.21 in1023.0 mb - 0.00 in0.0 mm 0.00 in0.0 mm
04:40 AM 17.2°F-8.2°C 15.6°F-9.1°C 93% Calm Calm -- 30.21 in1023.0 mb - 0.00 in0.0 mm 0.00 in0.0 mm
04:45 AM 17.4°F-8.1°C 15.7°F-9.1°C 93% Calm Calm -- 30.22 in1023.4 mb - 0.00 in0.0 mm 0.00 in0.0 mm
04:50 AM 17.4°F-8.1°C 15.7°F-9.1°C 93% Calm Calm -- 30.22 in1023.4 mb - 0.00 in0.0 mm 0.00 in0.0 mm
04:55 AM 17.4°F-8.1°C 15.7°F-9.1°C 93% Calm Calm -- 30.22 in1023.4 mb - 0.00 in0.0 mm 0.00 in0.0 mm
05:00 AM 17.4°F-8.1°C 15.7°F-9.1°C 93% Calm Calm -- 30.23 in1023.7 mb - 0.00 in0.0 mm 0.00 in0.0 mm
05:10 AM 17.8°F-7.9°C 16.1°F-8.8°C 93% Calm Calm -- 30.23 in1023.7 mb - 0.00 in0.0 mm 0.00 in0.0 mm
05:15 AM 17.8°F-7.9°C 16.1°F-8.8°C 93% Calm Calm -- 30.23 in1023.7 mb - 0.00 in0.0 mm 0.00 in0.0 mm
05:20 AM 18.0°F-7.8°C 16.3°F-8.7°C 93% Calm Calm -- 30.23 in1023.7 mb - 0.00 in0.0 mm 0.00 in0.0 mm
05:25 AM 18.1°F-7.7°C 16.5°F-8.6°C 93% Calm Calm -- 30.23 in1023.7 mb - 0.00 in0.0 mm 0.00 in0.0 mm
05:30 AM 18.1°F-7.7°C 16.5°F-8.6°C 93% Calm Calm -- 30.23 in1023.7 mb - 0.00 in0.0 mm 0.00 in0.0 mm
05:35 AM 18.1°F-7.7°C 16.5°F-8.6°C 93% Calm Calm -- 30.24 in1024.0 mb - 0.00 in0.0 mm 0.00 in0.0 mm
05:40 AM 18.1°F-7.7°C 16.5°F-8.6°C 93% Calm Calm -- 30.24 in1024.0 mb - 0.00 in0.0 mm 0.00 in0.0 mm
05:45 AM 18.1°F-7.7°C 16.5°F-8.6°C 93% Calm Calm -- 30.24 in1024.0 mb - 0.00 in0.0 mm 0.00 in0.0 mm
05:50 AM 18.1°F-7.7°C 16.5°F-8.6°C 93% Calm Calm -- 30.23 in1023.7 mb - 0.00 in0.0 mm 0.00 in0.0 mm
05:55 AM 18.1°F-7.7°C 16.5°F-8.6°C 93% Calm Calm -- 30.24 in1024.0 mb - 0.00 in0.0 mm 0.00 in0.0 mm
06:00 AM 18.1°F-7.7°C 16.5°F-8.6°C 93% Calm Calm -- 30.23 in1023.7 mb - 0.00 in0.0 mm 0.00 in0.0 mm
06:10 AM 18.1°F-7.7°C 16.5°F-8.6°C 93% Calm Calm -- 30.25 in1024.4 mb - 0.00 in0.0 mm 0.00 in0.0 mm
06:15 AM 17.8°F-7.9°C 16.1°F-8.8°C 93% Calm Calm -- 30.24 in1024.0 mb - 0.00 in0.0 mm 0.00 in0.0 mm
06:20 AM 17.8°F-7.9°C 16.1°F-8.8°C 93% Calm Calm -- 30.24 in1024.0 mb - 0.00 in0.0 mm 0.00 in0.0 mm
06:25 AM 17.4°F-8.1°C 15.7°F-9.1°C 93% Calm Calm -- 30.25 in1024.4 mb - 0.00 in0.0 mm 0.00 in0.0 mm
06:30 AM 17.2°F-8.2°C 15.6°F-9.1°C 93% Calm Calm -- 30.24 in1024.0 mb - 0.00 in0.0 mm 0.00 in0.0 mm
06:35 AM 17.1°F-8.3°C 15.4°F-9.2°C 93% Calm Calm -- 30.24 in1024.0 mb - 0.00 in0.0 mm 0.00 in0.0 mm
06:40 AM 16.9°F-8.4°C 15.2°F-9.3°C 93% Calm Calm -- 30.24 in1024.0 mb - 0.00 in0.0 mm 0.00 in0.0 mm
06:45 AM 16.7°F-8.5°C 15.0°F-9.4°C 93% Calm Calm -- 30.24 in1024.0 mb - 0.00 in0.0 mm 0.00 in0.0 mm
06:50 AM 16.3°F-8.7°C 14.7°F-9.6°C 93% Calm Calm -- 30.25 in1024.4 mb - 0.00 in0.0 mm 0.00 in0.0 mm
06:55 AM 16.3°F-8.7°C 14.7°F-9.6°C 93% Calm Calm -- 30.25 in1024.4 mb - 0.00 in0.0 mm 0.00 in0.0 mm
07:00 AM 16.2°F-8.8°C 14.5°F-9.7°C 93% Calm Calm -- 30.26 in1024.7 mb - 0.00 in0.0 mm 0.00 in0.0 mm
07:10 AM 16.2°F-8.8°C 14.5°F-9.7°C 93% Calm Calm -- 30.26 in1024.7 mb - 0.00 in0.0 mm 0.00 in0.0 mm
07:15 AM 16.2°F-8.8°C 14.5°F-9.7°C 93% Calm Calm -- 30.26 in1024.7 mb - 0.00 in0.0 mm 0.00 in0.0 mm
07:20 AM 16.2°F-8.8°C 14.5°F-9.7°C 93% Calm Calm -- 30.26 in1024.7 mb - 0.00 in0.0 mm 0.00 in0.0 mm
07:25 AM 16.7°F-8.5°C 15.0°F-9.4°C 93% Calm Calm -- 30.26 in1024.7 mb - 0.00 in0.0 mm 0.00 in0.0 mm
07:30 AM 16.7°F-8.5°C 15.0°F-9.4°C 93% Calm Calm -- 30.26 in1024.7 mb - 0.00 in0.0 mm 0.00 in0.0 mm
07:35 AM 17.0°F-8.3°C 15.3°F-9.3°C 93% Calm Calm -- 30.27 in1025.1 mb - 0.00 in0.0 mm 0.00 in0.0 mm
07:40 AM 17.4°F-8.1°C 15.7°F-9.1°C 93% Calm Calm -- 30.27 in1025.1 mb - 0.00 in0.0 mm 0.00 in0.0 mm
07:45 AM 17.4°F-8.1°C 15.7°F-9.1°C 93% Calm Calm -- 30.27 in1025.1 mb - 0.00 in0.0 mm 0.00 in0.0 mm
07:50 AM 18.0°F-7.8°C 16.3°F-8.7°C 93% Calm Calm -- 30.27 in1025.1 mb - 0.00 in0.0 mm 0.00 in0.0 mm
07:55 AM 18.1°F-7.7°C 16.5°F-8.6°C 93% Calm Calm -- 30.27 in1025.1 mb - 0.00 in0.0 mm 0.00 in0.0 mm
08:00 AM 18.6°F-7.4°C 16.9°F-8.4°C 93% Calm Calm -- 30.28 in1025.4 mb - 0.00 in0.0 mm 0.00 in0.0 mm
08:10 AM 19.6°F-6.9°C 17.9°F-7.8°C 93% Calm Calm -- 30.28 in1025.4 mb - 0.00 in0.0 mm 0.00 in0.0 mm
08:15 AM 19.8°F-6.8°C 18.1°F-7.7°C 93% Calm Calm -- 30.28 in1025.4 mb - 0.00 in0.0 mm 0.00 in0.0 mm
08:20 AM 20.4°F-6.4°C 18.7°F-7.4°C 93% Calm Calm -- 30.29 in1025.7 mb - 0.00 in0.0 mm 0.00 in0.0 mm
08:25 AM 20.8°F-6.2°C 19.1°F-7.2°C 93% Calm Calm -- 30.29 in1025.7 mb - 0.00 in0.0 mm 0.00 in0.0 mm
08:30 AM 21.2°F-6.0°C 19.5°F-6.9°C 93% Calm Calm -- 30.30 in1026.1 mb - 0.00 in0.0 mm 0.00 in0.0 mm
08:35 AM 21.6°F-5.8°C 19.9°F-6.7°C 93% Calm Calm -- 30.29 in1025.7 mb - 0.00 in0.0 mm 0.00 in0.0 mm
08:40 AM 21.9°F-5.6°C 20.2°F-6.6°C 93% Calm Calm -- 30.30 in1026.1 mb - 0.00 in0.0 mm 0.00 in0.0 mm
08:45 AM 22.1°F-5.5°C 20.4°F-6.4°C 93% Calm Calm -- 30.31 in1026.4 mb - 0.00 in0.0 mm 0.00 in0.0 mm
08:50 AM 22.5°F-5.3°C 20.7°F-6.3°C 93% Calm Calm -- 30.30 in1026.1 mb - 0.00 in0.0 mm 0.00 in0.0 mm
08:55 AM 22.8°F-5.1°C 20.8°F-6.2°C 92% Calm Calm -- 30.31 in1026.4 mb - 0.00 in0.0 mm 0.00 in0.0 mm
09:00 AM 23.4°F-4.8°C 21.1°F-6.1°C 91% Calm Calm -- 30.31 in1026.4 mb - 0.00 in0.0 mm 0.00 in0.0 mm
09:10 AM 24.4°F-4.2°C 22.1°F-5.5°C 91% Calm Calm -- 30.32 in1026.8 mb - 0.00 in0.0 mm 0.00 in0.0 mm
09:15 AM 24.8°F-4.0°C 22.3°F-5.4°C 90% Calm Calm -- 30.32 in1026.8 mb - 0.00 in0.0 mm 0.00 in0.0 mm
09:20 AM 25.2°F-3.8°C 22.1°F-5.5°C 88% Calm Calm -- 30.31 in1026.4 mb - 0.00 in0.0 mm 0.00 in0.0 mm
09:25 AM 25.2°F-3.8°C 22.1°F-5.5°C 88% 1.2 mph NE1.9 kmh NE 2.3 mph3.7 kmh 30.30 in1026.1 mb - 0.00 in0.0 mm 0.00 in0.0 mm
09:30 AM 25.3°F-3.7°C 21.7°F-5.7°C 86% 1.2 mph NNE1.9 kmh NNE -- 30.31 in1026.4 mb - 0.00 in0.0 mm 0.00 in0.0 mm
09:35 AM 25.7°F-3.5°C 21.8°F-5.7°C 85% 1.2 mph NE1.9 kmh NE 2.3 mph3.7 kmh 30.30 in1026.1 mb - 0.00 in0.0 mm 0.00 in0.0 mm
09:40 AM 26.1°F-3.3°C 21.7°F-5.7°C 83% 1.2 mph NNE1.9 kmh NNE 2.3 mph3.7 kmh 30.31 in1026.4 mb - 0.00 in0.0 mm 0.00 in0.0 mm
09:45 AM 26.2°F-3.2°C 21.8°F-5.7°C 83% 1.2 mph NE1.9 kmh NE 2.3 mph3.7 kmh 30.31 in1026.4 mb - 0.00 in0.0 mm 0.00 in0.0 mm
09:50 AM 27.0°F-2.8°C 22.5°F-5.3°C 83% 1.2 mph NE1.9 kmh NE 2.3 mph3.7 kmh 30.31 in1026.4 mb - 0.00 in0.0 mm 0.00 in0.0 mm
09:55 AM 27.4°F-2.6°C 22.3°F-5.4°C 81% 1.2 mph NNE1.9 kmh NNE 1.2 mph1.9 kmh 30.32 in1026.8 mb - 0.00 in0.0 mm 0.00 in0.0 mm
10:00 AM 27.6°F-2.4°C 22.5°F-5.3°C 81% 1.2 mph ENE1.9 kmh ENE 1.2 mph1.9 kmh 30.32 in1026.8 mb - 0.00 in0.0 mm 0.00 in0.0 mm
10:10 AM 28.2°F-2.1°C 22.8°F-5.1°C 80% 1.2 mph ENE1.9 kmh ENE -- 30.32 in1026.8 mb - 0.00 in0.0 mm 0.00 in0.0 mm
10:15 AM 28.8°F-1.8°C 23.4°F-4.8°C 80% Calm Calm -- 30.32 in1026.8 mb - 0.00 in0.0 mm 0.00 in0.0 mm
10:20 AM 28.6°F-1.9°C 22.9°F-5.1°C 79% Calm Calm 1.2 mph1.9 kmh 30.32 in1026.8 mb - 0.00 in0.0 mm 0.00 in0.0 mm
10:25 AM 27.9°F-2.3°C 22.5°F-5.3°C 80% Calm Calm -- 30.32 in1026.8 mb - 0.00 in0.0 mm 0.00 in0.0 mm
10:30 AM 28.6°F-1.9°C 23.2°F-4.9°C 80% Calm Calm 2.3 mph3.7 kmh 30.32 in1026.8 mb - 0.00 in0.0 mm 0.00 in0.0 mm
10:35 AM 28.6°F-1.9°C 23.2°F-4.9°C 80% 1.2 mph E1.9 kmh E 2.3 mph3.7 kmh 30.31 in1026.4 mb - 0.00 in0.0 mm 0.00 in0.0 mm
10:40 AM 29.1°F-1.6°C 23.7°F-4.6°C 80% 1.2 mph NE1.9 kmh NE 2.3 mph3.7 kmh 30.31 in1026.4 mb - 0.00 in0.0 mm 0.00 in0.0 mm
10:45 AM 29.5°F-1.4°C 23.8°F-4.6°C 79% 2.3 mph NE3.7 kmh NE 1.2 mph1.9 kmh 30.30 in1026.1 mb - 0.00 in0.0 mm 0.00 in0.0 mm
10:50 AM 29.8°F-1.2°C 24.1°F-4.4°C 79% 1.2 mph E1.9 kmh E 2.3 mph3.7 kmh 30.30 in1026.1 mb - 0.00 in0.0 mm 0.00 in0.0 mm
10:55 AM 30.0°F-1.1°C 24.3°F-4.3°C 79% 1.2 mph NE1.9 kmh NE 2.3 mph3.7 kmh 30.29 in1025.7 mb - 0.00 in0.0 mm 0.00 in0.0 mm
11:00 AM 30.1°F-1.1°C 24.4°F-4.2°C 79% 1.2 mph NE1.9 kmh NE 1.2 mph1.9 kmh 30.30 in1026.1 mb - 0.00 in0.0 mm 0.00 in0.0 mm
11:10 AM 30.9°F-0.6°C 25.1°F-3.8°C 79% 1.2 mph E1.9 kmh E 2.3 mph3.7 kmh 30.29 in1025.7 mb - 0.00 in0.0 mm 0.00 in0.0 mm
11:15 AM 32.2°F0.1°C 25.5°F-3.6°C 76% 2.3 mph ENE3.7 kmh ENE 3.5 mph5.6 kmh 30.29 in1025.7 mb - 0.00 in0.0 mm 0.00 in0.0 mm
11:20 AM 31.8°F-0.1°C 25.1°F-3.8°C 76% 2.3 mph E3.7 kmh E 3.5 mph5.6 kmh 30.29 in1025.7 mb - 0.00 in0.0 mm 0.00 in0.0 mm
11:25 AM 32.2°F0.1°C 25.5°F-3.6°C 76% 2.3 mph E3.7 kmh E 3.5 mph5.6 kmh 30.30 in1026.1 mb - 0.00 in0.0 mm 0.00 in0.0 mm
11:30 AM 32.2°F0.1°C 25.5°F-3.6°C 76% 2.3 mph E3.7 kmh E 3.5 mph5.6 kmh 30.30 in1026.1 mb - 0.00 in0.0 mm 0.00 in0.0 mm
11:35 AM 32.5°F0.3°C 25.8°F-3.4°C 76% 3.5 mph ESE5.6 kmh ESE 4.6 mph7.4 kmh 30.29 in1025.7 mb - 0.00 in0.0 mm 0.00 in0.0 mm
11:40 AM 32.5°F0.3°C 25.8°F-3.4°C 76% 3.5 mph ESE5.6 kmh ESE 3.5 mph5.6 kmh 30.29 in1025.7 mb - 0.00 in0.0 mm 0.00 in0.0 mm
11:45 AM 33.1°F0.6°C 26.3°F-3.2°C 76% 2.3 mph ESE3.7 kmh ESE 3.5 mph5.6 kmh 30.27 in1025.1 mb - 0.00 in0.0 mm 0.00 in0.0 mm
11:50 AM 33.3°F0.7°C 26.2°F-3.2°C 75% 2.3 mph ENE3.7 kmh ENE 4.6 mph7.4 kmh 30.27 in1025.1 mb - 0.00 in0.0 mm 0.00 in0.0 mm
11:55 AM 32.8°F0.4°C 25.7°F-3.5°C 75% 2.3 mph ENE3.7 kmh ENE 3.5 mph5.6 kmh 30.27 in1025.1 mb - 0.00 in0.0 mm 0.00 in0.0 mm
12:00 PM 33.4°F0.8°C 26.4°F-3.1°C 75% 2.3 mph E3.7 kmh E 3.5 mph5.6 kmh 30.27 in1025.1 mb - 0.00 in0.0 mm 0.00 in0.0 mm
12:10 PM 33.4°F0.8°C 26.3°F-3.2°C 75% 3.5 mph E5.6 kmh E 3.5 mph5.6 kmh 30.26 in1024.7 mb - 0.00 in0.0 mm 0.00 in0.0 mm
12:15 PM 33.4°F0.8°C 26.4°F-3.1°C 75% 3.5 mph E5.6 kmh E 4.6 mph7.4 kmh 30.26 in1024.7 mb - 0.00 in0.0 mm 0.00 in0.0 mm
12:20 PM 33.4°F0.8°C 26.4°F-3.1°C 75% 3.5 mph E5.6 kmh E 3.5 mph5.6 kmh 30.26 in1024.7 mb - 0.00 in0.0 mm 0.00 in0.0 mm
12:25 PM 33.4°F0.8°C 26.4°F-3.1°C 75% 3.5 mph ESE5.6 kmh ESE 3.5 mph5.6 kmh 30.26 in1024.7 mb - 0.00 in0.0 mm 0.00 in0.0 mm
12:30 PM 33.8°F1.0°C 26.7°F-2.9°C 75% 2.3 mph E3.7 kmh E 2.3 mph3.7 kmh 30.26 in1024.7 mb - 0.00 in0.0 mm 0.00 in0.0 mm
12:35 PM 33.8°F1.0°C 26.7°F-2.9°C 75% 2.3 mph E3.7 kmh E 3.5 mph5.6 kmh 30.25 in1024.4 mb - 0.00 in0.0 mm 0.00 in0.0 mm
12:40 PM 34.2°F1.2°C 27.1°F-2.7°C 75% 2.3 mph ESE3.7 kmh ESE 3.5 mph5.6 kmh 30.26 in1024.7 mb - 0.00 in0.0 mm 0.00 in0.0 mm
12:45 PM 34.7°F1.5°C 27.6°F-2.4°C 75% 3.5 mph ESE5.6 kmh ESE 3.5 mph5.6 kmh 30.26 in1024.7 mb - 0.00 in0.0 mm 0.00 in0.0 mm
12:50 PM 35.1°F1.7°C 27.9°F-2.3°C 75% 2.3 mph E3.7 kmh E 2.3 mph3.7 kmh 30.26 in1024.7 mb - 0.00 in0.0 mm 0.00 in0.0 mm
12:55 PM 35.1°F1.7°C 27.9°F-2.3°C 75% 3.5 mph SE5.6 kmh SE 6.9 mph11.1 kmh 30.25 in1024.4 mb - 0.00 in0.0 mm 0.00 in0.0 mm
01:00 PM 34.5°F1.4°C 27.4°F-2.6°C 75% 3.5 mph SE5.6 kmh SE 3.5 mph5.6 kmh 30.25 in1024.4 mb - 0.00 in0.0 mm 0.00 in0.0 mm
01:10 PM 34.5°F1.4°C 27.7°F-2.4°C 76% 2.3 mph SE3.7 kmh SE 3.5 mph5.6 kmh 30.24 in1024.0 mb - 0.00 in0.0 mm 0.00 in0.0 mm
01:15 PM 34.5°F1.4°C 27.4°F-2.6°C 75% 3.5 mph ESE5.6 kmh ESE 3.5 mph5.6 kmh 30.24 in1024.0 mb - 0.00 in0.0 mm 0.00 in0.0 mm
01:20 PM 34.6°F1.4°C 27.5°F-2.5°C 75% 3.5 mph SE5.6 kmh SE 4.6 mph7.4 kmh 30.24 in1024.0 mb - 0.00 in0.0 mm 0.00 in0.0 mm
01:25 PM 35.1°F1.7°C 27.9°F-2.3°C 75% 3.5 mph ESE5.6 kmh ESE 3.5 mph5.6 kmh 30.24 in1024.0 mb - 0.00 in0.0 mm 0.00 in0.0 mm
01:30 PM 35.1°F1.7°C 27.9°F-2.3°C 75% 3.5 mph SE5.6 kmh SE 3.5 mph5.6 kmh 30.23 in1023.7 mb - 0.00 in0.0 mm 0.00 in0.0 mm
01:35 PM 34.9°F1.6°C 27.8°F-2.3°C 75% 3.5 mph SSE5.6 kmh SSE 3.5 mph5.6 kmh 30.23 in1023.7 mb - 0.00 in0.0 mm 0.00 in0.0 mm
01:40 PM 34.9°F1.6°C 27.8°F-2.3°C 75% 4.6 mph ESE7.4 kmh ESE 6.9 mph11.1 kmh 30.23 in1023.7 mb - 0.00 in0.0 mm 0.00 in0.0 mm
01:45 PM 34.9°F1.6°C 27.8°F-2.3°C 75% 3.5 mph SE5.6 kmh SE 5.8 mph9.3 kmh 30.22 in1023.4 mb - 0.00 in0.0 mm 0.00 in0.0 mm
01:50 PM 35.2°F1.8°C 28.0°F-2.2°C 75% 3.5 mph ESE5.6 kmh ESE 5.8 mph9.3 kmh 30.22 in1023.4 mb - 0.00 in0.0 mm 0.00 in0.0 mm
01:55 PM 35.4°F1.9°C 28.3°F-2.1°C 75% 4.6 mph SE7.4 kmh SE 5.8 mph9.3 kmh 30.22 in1023.4 mb - 0.00 in0.0 mm 0.00 in0.0 mm
02:00 PM 35.4°F1.9°C 28.3°F-2.1°C 75% 4.6 mph SE7.4 kmh SE 3.5 mph5.6 kmh 30.22 in1023.4 mb - 0.00 in0.0 mm 0.00 in0.0 mm
02:10 PM 35.5°F1.9°C 28.4°F-2.0°C 75% 3.5 mph SE5.6 kmh SE 5.8 mph9.3 kmh 30.23 in1023.7 mb - 0.00 in0.0 mm 0.00 in0.0 mm
02:15 PM 35.8°F2.1°C 28.6°F-1.9°C 75% 3.5 mph S5.6 kmh S 3.5 mph5.6 kmh 30.23 in1023.7 mb - 0.00 in0.0 mm 0.00 in0.0 mm
02:20 PM 36.0°F2.2°C 28.5°F-1.9°C 74% 2.3 mph SSE3.7 kmh SSE 5.8 mph9.3 kmh 30.23 in1023.7 mb - 0.00 in0.0 mm 0.00 in0.0 mm
02:25 PM 36.1°F2.3°C 28.6°F-1.9°C 74% 3.5 mph SE5.6 kmh SE 3.5 mph5.6 kmh 30.23 in1023.7 mb - 0.00 in0.0 mm 0.00 in0.0 mm
02:30 PM 36.5°F2.5°C 29.0°F-1.7°C 74% 3.5 mph SE5.6 kmh SE 3.5 mph5.6 kmh 30.24 in1024.0 mb - 0.00 in0.0 mm 0.00 in0.0 mm
02:35 PM 37.4°F3.0°C 28.9°F-1.7°C 71% 3.5 mph ESE5.6 kmh ESE 4.6 mph7.4 kmh 30.23 in1023.7 mb - 0.00 in0.0 mm 0.00 in0.0 mm
02:40 PM 37.4°F3.0°C 28.5°F-1.9°C 70% 3.5 mph SE5.6 kmh SE 4.6 mph7.4 kmh 30.23 in1023.7 mb - 0.00 in0.0 mm 0.00 in0.0 mm
02:45 PM 37.4°F3.0°C 28.5°F-1.9°C 70% 3.5 mph SE5.6 kmh SE 3.5 mph5.6 kmh 30.23 in1023.7 mb - 0.00 in0.0 mm 0.00 in0.0 mm
02:50 PM 37.3°F2.9°C 28.4°F-2.0°C 70% 4.6 mph SSE7.4 kmh SSE 5.8 mph9.3 kmh 30.21 in1023.0 mb - 0.00 in0.0 mm 0.00 in0.0 mm
02:55 PM 37.0°F2.8°C 28.5°F-1.9°C 71% 4.6 mph ESE7.4 kmh ESE 5.8 mph9.3 kmh 30.23 in1023.7 mb - 0.00 in0.0 mm 0.00 in0.0 mm
03:00 PM 37.0°F2.8°C 28.5°F-1.9°C 71% 4.6 mph SE7.4 kmh SE 5.8 mph9.3 kmh 30.22 in1023.4 mb - 0.00 in0.0 mm 0.00 in0.0 mm
03:10 PM 36.9°F2.7°C 29.0°F-1.7°C 73% 3.5 mph SE5.6 kmh SE 5.8 mph9.3 kmh 30.23 in1023.7 mb - 0.00 in0.0 mm 0.00 in0.0 mm
03:15 PM 36.2°F2.3°C 28.7°F-1.8°C 74% 3.5 mph SE5.6 kmh SE 3.5 mph5.6 kmh 30.23 in1023.7 mb - 0.00 in0.0 mm 0.00 in0.0 mm
03:20 PM 36.3°F2.4°C 28.8°F-1.8°C 74% 4.6 mph SE7.4 kmh SE 3.5 mph5.6 kmh 30.23 in1023.7 mb - 0.00 in0.0 mm 0.00 in0.0 mm
03:25 PM 36.0°F2.2°C 28.8°F-1.8°C 75% 4.6 mph SE7.4 kmh SE 5.8 mph9.3 kmh 30.23 in1023.7 mb - 0.00 in0.0 mm 0.00 in0.0 mm
03:30 PM 36.0°F2.2°C 28.8°F-1.8°C 75% 4.6 mph SE7.4 kmh SE 4.6 mph7.4 kmh 30.23 in1023.7 mb - 0.00 in0.0 mm 0.00 in0.0 mm
03:35 PM 36.0°F2.2°C 28.8°F-1.8°C 75% 3.5 mph SE5.6 kmh SE 5.8 mph9.3 kmh 30.23 in1023.7 mb - 0.00 in0.0 mm 0.00 in0.0 mm
03:40 PM 35.9°F2.2°C 28.7°F-1.8°C 75% 3.5 mph SE5.6 kmh SE 3.5 mph5.6 kmh 30.23 in1023.7 mb - 0.00 in0.0 mm 0.00 in0.0 mm
03:45 PM 35.8°F2.1°C 28.6°F-1.9°C 75% 3.5 mph SE5.6 kmh SE 3.5 mph5.6 kmh 30.21 in1023.0 mb - 0.00 in0.0 mm 0.00 in0.0 mm
03:50 PM 35.4°F1.9°C 28.6°F-1.9°C 76% 3.5 mph SSE5.6 kmh SSE 3.5 mph5.6 kmh 30.21 in1023.0 mb - 0.00 in0.0 mm 0.00 in0.0 mm
03:55 PM 35.4°F1.9°C 28.6°F-1.9°C 76% 2.3 mph ESE3.7 kmh ESE 2.3 mph3.7 kmh 30.22 in1023.4 mb - 0.00 in0.0 mm 0.00 in0.0 mm
04:00 PM 35.1°F1.7°C 28.3°F-2.1°C 76% 2.3 mph ESE3.7 kmh ESE 3.5 mph5.6 kmh 30.20 in1022.7 mb - 0.00 in0.0 mm 0.00 in0.0 mm
04:10 PM 34.9°F1.6°C 28.7°F-1.8°C 78% 2.3 mph ESE3.7 kmh ESE 3.5 mph5.6 kmh 30.21 in1023.0 mb - 0.00 in0.0 mm 0.00 in0.0 mm
04:15 PM 34.5°F1.4°C 28.4°F-2.0°C 78% 3.5 mph ESE5.6 kmh ESE 2.3 mph3.7 kmh 30.20 in1022.7 mb - 0.00 in0.0 mm 0.00 in0.0 mm
04:20 PM 34.2°F1.2°C 28.3°F-2.1°C 79% 2.3 mph ESE3.7 kmh ESE 3.5 mph5.6 kmh 30.21 in1023.0 mb - 0.00 in0.0 mm 0.00 in0.0 mm
04:25 PM 34.2°F1.2°C 28.6°F-1.9°C 80% 2.3 mph ESE3.7 kmh ESE 3.5 mph5.6 kmh 30.21 in1023.0 mb - 0.00 in0.0 mm 0.00 in0.0 mm
04:30 PM 34.2°F1.2°C 28.6°F-1.9°C 80% 2.3 mph ESE3.7 kmh ESE 2.3 mph3.7 kmh 30.20 in1022.7 mb - 0.00 in0.0 mm 0.00 in0.0 mm
04:35 PM 34.0°F1.1°C 28.5°F-1.9°C 80% 2.3 mph ESE3.7 kmh ESE 3.5 mph5.6 kmh 30.20 in1022.7 mb - 0.00 in0.0 mm 0.00 in0.0 mm
04:40 PM 33.8°F1.0°C 28.6°F-1.9°C 81% 2.3 mph ESE3.7 kmh ESE 3.5 mph5.6 kmh 30.20 in1022.7 mb - 0.00 in0.0 mm 0.00 in0.0 mm
04:45 PM 33.5°F0.8°C 28.3°F-2.1°C 81% 2.3 mph ESE3.7 kmh ESE 2.3 mph3.7 kmh 30.19 in1022.4 mb - 0.00 in0.0 mm 0.00 in0.0 mm
04:50 PM 33.4°F0.8°C 28.2°F-2.1°C 81% 2.3 mph ESE3.7 kmh ESE 3.5 mph5.6 kmh 30.19 in1022.4 mb - 0.00 in0.0 mm 0.00 in0.0 mm
04:55 PM 33.4°F0.8°C 28.2°F-2.1°C 81% 2.3 mph ESE3.7 kmh ESE 3.5 mph5.6 kmh 30.19 in1022.4 mb - 0.00 in0.0 mm 0.00 in0.0 mm
05:00 PM 33.4°F0.8°C 28.2°F-2.1°C 81% 2.3 mph ESE3.7 kmh ESE 3.5 mph5.6 kmh 30.19 in1022.4 mb - 0.00 in0.0 mm 0.00 in0.0 mm
05:10 PM 33.3°F0.7°C 28.1°F-2.2°C 81% 2.3 mph E3.7 kmh E 3.5 mph5.6 kmh 30.18 in1022.0 mb - 0.00 in0.0 mm 0.00 in0.0 mm
05:15 PM 33.3°F0.7°C 28.7°F-1.8°C 83% 3.5 mph ESE5.6 kmh ESE 3.5 mph5.6 kmh 30.18 in1022.0 mb - 0.00 in0.0 mm 0.00 in0.0 mm
05:20 PM 33.3°F0.7°C 28.7°F-1.8°C 83% 3.5 mph SE5.6 kmh SE 2.3 mph3.7 kmh 30.17 in1021.7 mb - 0.00 in0.0 mm 0.00 in0.0 mm
05:25 PM 33.1°F0.6°C 28.5°F-1.9°C 83% 2.3 mph ESE3.7 kmh ESE 3.5 mph5.6 kmh 30.19 in1022.4 mb - 0.00 in0.0 mm 0.00 in0.0 mm
05:30 PM 32.9°F0.5°C 28.3°F-2.1°C 83% 2.3 mph ESE3.7 kmh ESE 3.5 mph5.6 kmh 30.18 in1022.0 mb - 0.00 in0.0 mm 0.00 in0.0 mm
05:35 PM 32.5°F0.3°C 28.0°F-2.2°C 83% 3.5 mph SSE5.6 kmh SSE 4.6 mph7.4 kmh 30.18 in1022.0 mb - 0.00 in0.0 mm 0.00 in0.0 mm
05:40 PM 32.5°F0.3°C 28.0°F-2.2°C 83% 3.5 mph ESE5.6 kmh ESE 3.5 mph5.6 kmh 30.18 in1022.0 mb - 0.00 in0.0 mm 0.00 in0.0 mm
05:45 PM 32.4°F0.2°C 28.4°F-2.0°C 85% 3.5 mph ESE5.6 kmh ESE 3.5 mph5.6 kmh 30.18 in1022.0 mb - 0.00 in0.0 mm 0.00 in0.0 mm
05:50 PM 32.2°F0.1°C 28.2°F-2.1°C 85% 3.5 mph ESE5.6 kmh ESE 3.5 mph5.6 kmh 30.18 in1022.0 mb - 0.00 in0.0 mm 0.00 in0.0 mm
05:55 PM 31.8°F-0.1°C 27.8°F-2.3°C 85% 3.5 mph SE5.6 kmh SE 4.6 mph7.4 kmh 30.18 in1022.0 mb - 0.00 in0.0 mm 0.00 in0.0 mm
06:00 PM 31.8°F-0.1°C 28.1°F-2.2°C 86% 3.5 mph ESE5.6 kmh ESE 3.5 mph5.6 kmh 30.18 in1022.0 mb - 0.00 in0.0 mm 0.00 in0.0 mm
06:10 PM 31.6°F-0.2°C 27.9°F-2.3°C 86% 2.3 mph ESE3.7 kmh ESE 2.3 mph3.7 kmh 30.17 in1021.7 mb - 0.00 in0.0 mm 0.00 in0.0 mm
06:15 PM 31.6°F-0.2°C 27.9°F-2.3°C 86% 2.3 mph ESE3.7 kmh ESE 3.5 mph5.6 kmh 30.17 in1021.7 mb - 0.00 in0.0 mm 0.00 in0.0 mm
06:20 PM 31.6°F-0.2°C 27.9°F-2.3°C 86% 2.3 mph ESE3.7 kmh ESE 2.3 mph3.7 kmh 30.17 in1021.7 mb - 0.00 in0.0 mm 0.00 in0.0 mm
06:25 PM 31.6°F-0.2°C 27.9°F-2.3°C 86% 2.3 mph ESE3.7 kmh ESE 2.3 mph3.7 kmh 30.18 in1022.0 mb - 0.00 in0.0 mm 0.00 in0.0 mm
06:30 PM 31.4°F-0.3°C 27.7°F-2.4°C 86% 2.3 mph ESE3.7 kmh ESE 3.5 mph5.6 kmh 30.17 in1021.7 mb - 0.00 in0.0 mm 0.00 in0.0 mm
06:35 PM 31.3°F-0.4°C 28.1°F-2.2°C 88% 3.5 mph ESE5.6 kmh ESE 3.5 mph5.6 kmh 30.17 in1021.7 mb - 0.00 in0.0 mm 0.00 in0.0 mm
06:40 PM 31.3°F-0.4°C 28.1°F-2.2°C 88% 3.5 mph SE5.6 kmh SE 3.5 mph5.6 kmh 30.16 in1021.3 mb - 0.00 in0.0 mm 0.00 in0.0 mm
06:45 PM 31.3°F-0.4°C 28.1°F-2.2°C 88% 3.5 mph SE5.6 kmh SE 3.5 mph5.6 kmh 30.17 in1021.7 mb - 0.00 in0.0 mm 0.00 in0.0 mm
06:50 PM 31.3°F-0.4°C 28.1°F-2.2°C 88% 3.5 mph ESE5.6 kmh ESE 4.6 mph7.4 kmh 30.16 in1021.3 mb - 0.00 in0.0 mm 0.00 in0.0 mm
06:55 PM 31.3°F-0.4°C 28.1°F-2.2°C 88% 4.6 mph SE7.4 kmh SE 6.9 mph11.1 kmh 30.17 in1021.7 mb - 0.00 in0.0 mm 0.00 in0.0 mm
07:00 PM 31.3°F-0.4°C 28.1°F-2.2°C 88% 3.5 mph ESE5.6 kmh ESE 3.5 mph5.6 kmh 30.17 in1021.7 mb - 0.00 in0.0 mm 0.00 in0.0 mm
07:10 PM 31.3°F-0.4°C 28.1°F-2.2°C 88% 3.5 mph ESE5.6 kmh ESE 3.5 mph5.6 kmh 30.16 in1021.3 mb - 0.00 in0.0 mm 0.00 in0.0 mm
07:15 PM 31.2°F-0.4°C 28.0°F-2.2°C 88% 3.5 mph ESE5.6 kmh ESE 4.6 mph7.4 kmh 30.17 in1021.7 mb - 0.00 in0.0 mm 0.00 in0.0 mm
07:20 PM 31.1°F-0.5°C 28.0°F-2.2°C 88% 2.3 mph SE3.7 kmh SE 3.5 mph5.6 kmh 30.16 in1021.3 mb - 0.00 in0.0 mm 0.00 in0.0 mm
07:25 PM 31.1°F-0.5°C 28.2°F-2.1°C 89% 2.3 mph ESE3.7 kmh ESE 3.5 mph5.6 kmh 30.16 in1021.3 mb - 0.00 in0.0 mm 0.00 in0.0 mm
07:30 PM 30.7°F-0.7°C 28.2°F-2.1°C 90% 2.3 mph ESE3.7 kmh ESE 3.5 mph5.6 kmh 30.16 in1021.3 mb - 0.00 in0.0 mm 0.00 in0.0 mm
07:35 PM 30.7°F-0.7°C 28.2°F-2.1°C 90% 4.6 mph ESE7.4 kmh ESE 5.8 mph9.3 kmh 30.16 in1021.3 mb - 0.00 in0.0 mm 0.00 in0.0 mm
07:40 PM 30.7°F-0.7°C 28.2°F-2.1°C 90% 3.5 mph ESE5.6 kmh ESE 4.6 mph7.4 kmh 30.16 in1021.3 mb - 0.00 in0.0 mm 0.00 in0.0 mm
07:45 PM 30.7°F-0.7°C 28.2°F-2.1°C 90% 4.6 mph ESE7.4 kmh ESE 4.6 mph7.4 kmh 30.15 in1021.0 mb - 0.00 in0.0 mm 0.00 in0.0 mm
07:50 PM 30.7°F-0.7°C 28.4°F-2.0°C 91% 2.3 mph SE3.7 kmh SE 3.5 mph5.6 kmh 30.15 in1021.0 mb - 0.00 in0.0 mm 0.00 in0.0 mm
08:40 PM 30.7°F-0.7°C 28.4°F-2.0°C 91% 2.3 mph ESE3.7 kmh ESE 2.3 mph3.7 kmh 30.16 in1021.3 mb - 0.00 in0.0 mm 0.00 in0.0 mm
08:50 PM 30.7°F-0.7°C 28.4°F-2.0°C 91% 2.3 mph ESE3.7 kmh ESE 2.3 mph3.7 kmh 30.16 in1021.3 mb - 0.00 in0.0 mm 0.00 in0.0 mm
08:55 PM 32.0°F0.0°C 30.2°F-1.0°C 93% 3.5 mph SE5.6 kmh SE 3.5 mph5.6 kmh 30.15 in1021.0 mb - 0.00 in0.0 mm 0.00 in0.0 mm
09:00 PM 30.2°F-1.0°C 28.4°F-2.0°C 93% 1.2 mph ESE1.9 kmh ESE 2.3 mph3.7 kmh 30.15 in1021.0 mb - 0.00 in0.0 mm 0.00 in0.0 mm
09:10 PM 30.2°F-1.0°C 28.4°F-2.0°C 93% 2.3 mph ESE3.7 kmh ESE 2.3 mph3.7 kmh 30.14 in1020.7 mb - 0.00 in0.0 mm 0.00 in0.0 mm
09:15 PM 30.2°F-1.0°C 28.4°F-2.0°C 93% 3.5 mph S5.6 kmh S 3.5 mph5.6 kmh 30.14 in1020.7 mb - 0.00 in0.0 mm 0.00 in0.0 mm
09:20 PM 30.2°F-1.0°C 28.4°F-2.0°C 93% 1.2 mph E1.9 kmh E 3.5 mph5.6 kmh 30.14 in1020.7 mb - 0.00 in0.0 mm 0.00 in0.0 mm
09:25 PM 30.2°F-1.0°C 28.4°F-2.0°C 93% 3.5 mph SE5.6 kmh SE 3.5 mph5.6 kmh 30.14 in1020.7 mb - 0.00 in0.0 mm 0.00 in0.0 mm
09:30 PM 30.2°F-1.0°C 28.4°F-2.0°C 93% 2.3 mph SSE3.7 kmh SSE 2.3 mph3.7 kmh 30.14 in1020.7 mb - 0.00 in0.0 mm 0.00 in0.0 mm
09:35 PM 30.2°F-1.0°C 28.4°F-2.0°C 93% 2.3 mph SE3.7 kmh SE 3.5 mph5.6 kmh 30.15 in1021.0 mb - 0.00 in0.0 mm 0.00 in0.0 mm
09:40 PM 30.2°F-1.0°C 28.4°F-2.0°C 93% 2.3 mph ESE3.7 kmh ESE 3.5 mph5.6 kmh 30.15 in1021.0 mb - 0.00 in0.0 mm 0.00 in0.0 mm
09:45 PM 30.2°F-1.0°C 28.4°F-2.0°C 93% 2.3 mph SE3.7 kmh SE 3.5 mph5.6 kmh 30.14 in1020.7 mb - 0.00 in0.0 mm 0.00 in0.0 mm
09:50 PM 30.2°F-1.0°C 28.4°F-2.0°C 93% 2.3 mph ESE3.7 kmh ESE 3.5 mph5.6 kmh 30.14 in1020.7 mb - 0.00 in0.0 mm 0.00 in0.0 mm
09:55 PM 30.2°F-1.0°C 28.4°F-2.0°C 93% 3.5 mph SE5.6 kmh SE 4.6 mph7.4 kmh 30.14 in1020.7 mb - 0.00 in0.0 mm 0.00 in0.0 mm
10:00 PM 30.2°F-1.0°C 28.4°F-2.0°C 93% 3.5 mph ESE5.6 kmh ESE 3.5 mph5.6 kmh 30.14 in1020.7 mb - 0.00 in0.0 mm 0.00 in0.0 mm
10:10 PM 32.0°F0.0°C 30.2°F-1.0°C 93% 3.5 mph ESE5.6 kmh ESE 3.5 mph5.6 kmh 30.13 in1020.3 mb - 0.00 in0.0 mm 0.00 in0.0 mm
10:15 PM 32.0°F0.0°C 30.2°F-1.0°C 93% 3.5 mph ESE5.6 kmh ESE 3.5 mph5.6 kmh 30.13 in1020.3 mb - 0.00 in0.0 mm 0.00 in0.0 mm
10:20 PM 30.2°F-1.0°C 28.4°F-2.0°C 93% 2.3 mph E3.7 kmh E 3.5 mph5.6 kmh 30.13 in1020.3 mb - 0.00 in0.0 mm 0.00 in0.0 mm
10:25 PM 30.2°F-1.0°C 28.4°F-2.0°C 93% 2.3 mph E3.7 kmh E 3.5 mph5.6 kmh 30.12 in1020.0 mb - 0.00 in0.0 mm 0.00 in0.0 mm
10:30 PM 30.2°F-1.0°C 28.4°F-2.0°C 93% 3.5 mph SE5.6 kmh SE 3.5 mph5.6 kmh 30.13 in1020.3 mb - 0.00 in0.0 mm 0.00 in0.0 mm
10:35 PM 30.2°F-1.0°C 28.4°F-2.0°C 93% 3.5 mph ESE5.6 kmh ESE 4.6 mph7.4 kmh 30.12 in1020.0 mb - 0.00 in0.0 mm 0.00 in0.0 mm
10:40 PM 30.2°F-1.0°C 28.4°F-2.0°C 93% 3.5 mph ESE5.6 kmh ESE 5.8 mph9.3 kmh 30.12 in1020.0 mb - 0.00 in0.0 mm 0.00 in0.0 mm
10:45 PM 30.2°F-1.0°C 28.4°F-2.0°C 93% 4.6 mph ESE7.4 kmh ESE 4.6 mph7.4 kmh 30.11 in1019.6 mb - 0.00 in0.0 mm 0.00 in0.0 mm
10:50 PM 32.0°F0.0°C 30.2°F-1.0°C 93% 4.6 mph ESE7.4 kmh ESE 5.8 mph9.3 kmh 30.11 in1019.6 mb - 0.00 in0.0 mm 0.00 in0.0 mm
10:55 PM 32.0°F0.0°C 30.2°F-1.0°C 93% 3.5 mph ESE5.6 kmh ESE 4.6 mph7.4 kmh 30.11 in1019.6 mb - 0.00 in0.0 mm 0.00 in0.0 mm
11:00 PM 32.0°F0.0°C 30.2°F-1.0°C 93% 3.5 mph ESE5.6 kmh ESE 4.6 mph7.4 kmh 30.10 in1019.3 mb - 0.00 in0.0 mm 0.00 in0.0 mm
11:10 PM 32.0°F0.0°C 30.2°F-1.0°C 93% 3.5 mph SE5.6 kmh SE 3.5 mph5.6 kmh 30.11 in1019.6 mb - 0.00 in0.0 mm 0.00 in0.0 mm
11:15 PM 32.0°F0.0°C 30.2°F-1.0°C 93% 3.5 mph SE5.6 kmh SE 4.6 mph7.4 kmh 30.10 in1019.3 mb - 0.00 in0.0 mm 0.00 in0.0 mm
11:20 PM 32.0°F0.0°C 30.2°F-1.0°C 93% 3.5 mph SE5.6 kmh SE 3.5 mph5.6 kmh 30.11 in1019.6 mb - 0.00 in0.0 mm 0.00 in0.0 mm
11:25 PM 32.0°F0.0°C 30.2°F-1.0°C 93% 3.5 mph SE5.6 kmh SE 4.6 mph7.4 kmh 30.10 in1019.3 mb - 0.00 in0.0 mm 0.00 in0.0 mm
11:30 PM 32.0°F0.0°C 30.2°F-1.0°C 93% 4.6 mph ESE7.4 kmh ESE 6.9 mph11.1 kmh 30.09 in1019.0 mb - 0.00 in0.0 mm 0.00 in0.0 mm
11:35 PM 32.0°F0.0°C 30.2°F-1.0°C 93% 4.6 mph SSE7.4 kmh SSE 4.6 mph7.4 kmh 30.09 in1019.0 mb - 0.00 in0.0 mm 0.00 in0.0 mm
11:40 PM 32.0°F0.0°C 30.2°F-1.0°C 93% 3.5 mph ESE5.6 kmh ESE 3.5 mph5.6 kmh 30.08 in1018.6 mb - 0.00 in0.0 mm 0.00 in0.0 mm
11:45 PM 32.0°F0.0°C 30.2°F-1.0°C 93% 3.5 mph SE5.6 kmh SE 3.5 mph5.6 kmh 30.08 in1018.6 mb - 0.00 in0.0 mm 0.00 in0.0 mm
11:50 PM 32.0°F0.0°C 30.2°F-1.0°C 93% 3.5 mph ESE5.6 kmh ESE 3.5 mph5.6 kmh 30.08 in1018.6 mb - 0.00 in0.0 mm 0.00 in0.0 mm
11:55 PM 32.0°F0.0°C 30.2°F-1.0°C 93% 3.5 mph ESE5.6 kmh ESE 4.6 mph7.4 kmh 30.07 in1018.3 mb - 0.00 in0.0 mm 0.00 in0.0 mm